Time;durP1;ratioP1;P1;durP2;ratioP2;P2;SDS_P1;SDS_P2;PMS_P1;PMS_P2;Temp;Humidity;BMP_temperature;BMP_pressure;BME280_temperature;BME280_humidity;BME280_pressure;Samples;Min_cycle;Max_cycle;Signal;HPM_P1;HPM_P2
2021/04/26 00:01:53;;;;;;;10.38;5.05;;;14.40;41.90;;;;;;5071153;28;20024;-65
2021/04/26 00:04:19;;;;;;;12.50;5.07;;;14.40;41.90;;;;;;5074230;28;20112;-65
2021/04/26 00:06:45;;;;;;;9.82;4.93;;;14.40;42.00;;;;;;5074239;28;20508;-65
2021/04/26 00:09:11;;;;;;;10.50;4.70;;;14.40;42.00;;;;;;5075020;28;20056;-65
2021/04/26 00:11:37;;;;;;;10.23;4.93;;;14.40;42.00;;;;;;5074893;28;20444;-65
2021/04/26 00:14:07;;;;;;;12.45;5.20;;;14.30;41.90;;;;;;5074653;28;20078;-65
2021/04/26 00:16:33;;;;;;;10.25;4.70;;;14.30;42.00;;;;;;5083078;28;20070;-65
2021/04/26 00:19:00;;;;;;;9.00;4.97;;;14.20;42.70;;;;;;5073360;28;20430;-65
2021/04/26 00:21:26;;;;;;;10.05;5.03;;;14.20;42.10;;;;;;5075076;28;20059;-65
2021/04/26 00:23:52;;;;;;;10.23;4.68;;;14.20;42.10;;;;;;5074405;28;20060;-65
2021/04/26 00:26:18;;;;;;;9.85;5.28;;;14.20;42.10;;;;;;5079826;28;20526;-65
2021/04/26 00:28:45;;;;;;;9.85;4.80;;;14.20;42.10;;;;;;5080769;28;20060;-65
2021/04/26 00:31:11;;;;;;;10.30;5.30;;;14.20;42.10;;;;;;5074856;28;20064;-65
2021/04/26 00:33:37;;;;;;;10.85;4.90;;;14.10;42.10;;;;;;5074741;28;20052;-64
2021/04/26 00:36:03;;;;;;;9.60;4.90;;;14.10;42.20;;;;;;5074342;28;20492;-65
2021/04/26 00:38:29;;;;;;;10.40;5.13;;;14.10;42.10;;;;;;5068049;28;20059;-65
2021/04/26 00:40:56;;;;;;;9.68;4.78;;;14.00;42.10;;;;;;5070416;28;20059;-65
2021/04/26 00:43:22;;;;;;;10.75;5.30;;;14.00;42.10;;;;;;5074653;28;20036;-65
2021/04/26 00:45:48;;;;;;;11.88;5.80;;;14.00;42.20;;;;;;5073900;28;20025;-65
2021/04/26 00:48:15;;;;;;;11.45;5.43;;;14.00;42.20;;;;;;5074409;28;20060;-65
2021/04/26 00:50:42;;;;;;;10.95;5.65;;;13.90;42.20;;;;;;5074323;28;20052;-65
2021/04/26 00:53:10;;;;;;;10.05;5.65;;;13.90;42.20;;;;;;5074248;28;20055;-65
2021/04/26 00:55:38;;;;;;;8.63;4.53;;;13.90;42.20;;;;;;5074210;28;20031;-65
2021/04/26 00:58:05;;;;;;;9.93;5.18;;;13.90;42.20;;;;;;5062079;28;20086;-65
2021/04/26 01:00:33;;;;;;;11.55;5.40;;;13.90;42.20;;;;;;5073595;28;20452;-65
2021/04/26 01:03:00;;;;;;;12.57;5.70;;;13.90;42.20;;;;;;5073897;28;20099;-65
2021/04/26 01:05:29;;;;;;;11.10;5.53;;;13.80;42.20;;;;;;5073692;28;20037;-65
2021/04/26 01:07:55;;;;;;;10.70;4.75;;;13.70;42.20;;;;;;5073996;28;20427;-65
2021/04/26 01:10:24;;;;;;;11.35;5.57;;;13.70;42.30;;;;;;5073731;28;20060;-65
2021/04/26 01:13:02;;;;;;;10.85;5.30;;;13.70;42.40;;;;;;5076484;28;20070;-65
2021/04/26 01:15:40;;;;;;;12.50;6.07;;;13.70;42.60;;;;;;5076235;28;20078;-65
2021/04/26 01:18:23;;;;;;;12.30;5.63;;;13.70;42.50;;;;;;5073875;28;20354;-65
2021/04/26 01:21:11;;;;;;;11.70;5.15;;;13.60;42.40;;;;;;5073755;28;20036;-65
2021/04/26 01:24:08;;;;;;;9.63;5.18;;;13.60;42.60;;;;;;5073745;28;20036;-65
2021/04/26 01:26:48;;;;;;;11.80;5.35;;;13.60;42.60;;;;;;5073558;28;20361;-65
2021/04/26 01:29:24;;;;;;;9.80;5.30;;;13.50;42.80;;;;;;5073267;28;20023;-64
2021/04/26 01:32:18;;;;;;;10.18;5.10;;;13.50;42.80;;;;;;5073255;28;20479;-65
2021/04/26 01:34:46;;;;;;;11.32;5.35;;;13.50;43.00;;;;;;5073580;28;20107;-64
2021/04/26 01:37:14;;;;;;;13.05;6.07;;;13.50;43.10;;;;;;5073104;28;20372;-65
2021/04/26 01:39:43;;;;;;;11.80;6.45;;;13.50;43.10;;;;;;5064183;28;20052;-65
2021/04/26 01:42:12;;;;;;;11.63;5.93;;;13.40;43.00;;;;;;5083982;28;20392;-65
2021/04/26 01:44:38;;;;;;;12.13;5.32;;;13.40;43.40;;;;;;5073977;28;20025;-66
2021/04/26 01:47:07;;;;;;;10.27;4.93;;;13.30;43.30;;;;;;5073076;28;20028;-65
2021/04/26 01:49:34;;;;;;;9.88;5.10;;;13.30;43.30;;;;;;5073258;28;20043;-65
2021/04/26 01:52:03;;;;;;;10.65;4.85;;;13.30;43.50;;;;;;5073027;28;20028;-65
2021/04/26 01:54:29;;;;;;;10.43;5.20;;;13.30;43.50;;;;;;5073054;28;20103;-65
2021/04/26 01:56:56;;;;;;;12.27;5.05;;;13.20;43.50;;;;;;5063854;28;20028;-65
2021/04/26 01:59:24;;;;;;;10.57;5.45;;;13.20;43.60;;;;;;5079445;28;20028;-65
2021/04/26 02:01:54;;;;;;;11.13;5.32;;;13.20;43.60;;;;;;5071123;28;20035;-65
2021/04/26 02:04:21;;;;;;;12.52;6.10;;;13.20;43.70;;;;;;5073070;28;20029;-65
2021/04/26 02:06:49;;;;;;;12.43;6.10;;;13.10;43.80;;;;;;5072750;28;20049;-65
2021/04/26 02:09:16;;;;;;;11.75;5.82;;;13.10;43.80;;;;;;5072970;28;20028;-65
2021/04/26 02:11:43;;;;;;;9.82;4.97;;;13.10;43.90;;;;;;5072482;28;20063;-65
2021/04/26 02:14:12;;;;;;;11.30;5.13;;;13.10;43.90;;;;;;5072040;28;20086;-65
2021/04/26 02:16:39;;;;;;;8.80;4.43;;;13.10;43.80;;;;;;5072563;28;20052;-65
2021/04/26 02:19:06;;;;;;;11.05;4.55;;;13.10;43.80;;;;;;5072665;28;20031;-65
2021/04/26 02:21:33;;;;;;;11.55;5.40;;;13.10;43.90;;;;;;5072614;28;20567;-65
2021/04/26 02:23:59;;;;;;;10.05;5.13;;;13.00;44.00;;;;;;5072357;28;20032;-65
2021/04/26 02:26:25;;;;;;;9.88;4.65;;;13.00;43.90;;;;;;5071890;28;20468;-65
2021/04/26 02:28:51;;;;;;;9.13;4.53;;;13.00;43.90;;;;;;5078024;28;20123;-65
2021/04/26 02:31:21;;;;;;;9.35;4.53;;;13.00;44.10;;;;;;5072154;28;20024;-65
2021/04/26 02:34:14;;;;;;;10.18;4.93;;;13.00;44.00;;;;;;5072270;28;20025;-65
2021/04/26 02:36:44;;;;;;;11.52;5.13;;;13.00;44.10;;;;;;5072601;28;20025;-65
2021/04/26 02:39:13;;;;;;;9.30;4.53;;;12.90;44.10;;;;;;5061047;28;20032;-65
2021/04/26 02:41:42;;;;;;;8.68;4.72;;;12.90;44.10;;;;;;5071166;28;20377;-65
2021/04/26 02:44:24;;;;;;;11.45;5.90;;;12.90;44.20;;;;;;5070868;28;20033;-65
2021/04/26 02:46:58;;;;;;;11.82;5.20;;;12.90;44.40;;;;;;5072227;28;20060;-65
2021/04/26 02:49:26;;;;;;;12.40;5.75;;;12.90;44.30;;;;;;5071810;28;20056;-65
2021/04/26 02:51:53;;;;;;;11.38;6.05;;;12.80;44.60;;;;;;5072164;28;20025;-65
2021/04/26 02:54:20;;;;;;;12.32;5.30;;;12.70;44.60;;;;;;5072234;28;20052;-65
2021/04/26 02:56:48;;;;;;;11.38;5.97;;;12.70;44.80;;;;;;5070343;28;20017;-65
2021/04/26 02:59:19;;;;;;;10.80;4.93;;;12.60;44.90;;;;;;5063523;28;20059;-65
2021/04/26 03:01:47;;;;;;;9.48;5.18;;;12.60;44.80;;;;;;5071937;28;20063;-65
2021/04/26 03:04:16;;;;;;;9.45;4.88;;;12.60;44.80;;;;;;5071900;28;20062;-64
2021/04/26 03:06:43;;;;;;;9.95;4.72;;;12.60;45.80;;;;;;5084043;28;20520;-64
2021/04/26 03:09:11;;;;;;;9.13;5.35;;;12.60;45.00;;;;;;5071512;28;20436;-65
2021/04/26 03:11:38;;;;;;;11.65;5.00;;;12.60;45.10;;;;;;5071783;28;20056;-65
2021/04/26 03:14:04;;;;;;;10.45;4.78;;;12.60;45.00;;;;;;5071787;28;20059;-65
2021/04/26 03:16:31;;;;;;;10.00;5.20;;;12.60;45.10;;;;;;5070617;28;20056;-65
2021/04/26 03:18:57;;;;;;;10.73;5.20;;;12.60;45.20;;;;;;5070724;28;20079;-65
2021/04/26 03:21:24;;;;;;;9.82;5.25;;;12.50;45.20;;;;;;5071569;28;20437;-65
2021/04/26 03:23:51;;;;;;;10.57;4.72;;;12.50;45.40;;;;;;5071631;28;20032;-65
2021/04/26 03:26:18;;;;;;;10.13;5.32;;;12.50;45.30;;;;;;5071638;28;20080;-64
2021/04/26 03:28:46;;;;;;;10.60;4.40;;;12.50;45.40;;;;;;5070601;28;20060;-65
2021/04/26 03:31:12;;;;;;;11.13;4.80;;;12.50;45.50;;;;;;5071536;28;20484;-64
2021/04/26 03:33:39;;;;;;;9.13;5.05;;;12.50;45.40;;;;;;5071603;28;20040;-64
2021/04/26 03:36:06;;;;;;;10.68;5.88;;;12.50;45.50;;;;;;5071278;28;20048;-64
2021/04/26 03:38:33;;;;;;;11.05;5.40;;;12.50;45.80;;;;;;5069540;28;20040;-64
2021/04/26 03:40:59;;;;;;;9.02;4.72;;;12.40;45.70;;;;;;5073628;28;20059;-65
2021/04/26 03:43:26;;;;;;;12.75;6.25;;;12.40;45.80;;;;;;5075692;28;20503;-65
2021/04/26 03:45:56;;;;;;;7.97;4.63;;;12.40;46.00;;;;;;5075319;28;20060;-65
2021/04/26 03:48:23;;;;;;;10.88;4.80;;;12.40;46.00;;;;;;5075596;28;20053;-65
2021/04/26 03:50:49;;;;;;;10.20;5.00;;;12.40;46.00;;;;;;5075052;28;20071;-65
2021/04/26 03:53:15;;;;;;;12.05;6.65;;;12.30;46.10;;;;;;5074968;28;20059;-65
2021/04/26 03:55:41;;;;;;;10.35;5.47;;;12.30;46.60;;;;;;5075320;28;20028;-64
2021/04/26 03:58:08;;;;;;;10.65;5.60;;;12.20;46.50;;;;;;5074835;28;20531;-65
2021/04/26 04:00:34;;;;;;;10.10;5.50;;;12.20;46.60;;;;;;5075403;28;20063;-65
2021/04/26 04:03:08;;;;;;;11.07;5.72;;;12.20;46.90;;;;;;5075115;28;20033;-65
2021/04/26 04:05:37;;;;;;;10.18;5.30;;;12.10;47.00;;;;;;5075038;28;20052;-65
2021/04/26 04:08:05;;;;;;;11.80;5.90;;;12.00;47.10;;;;;;5078386;28;20021;-64
2021/04/26 04:10:31;;;;;;;11.07;5.03;;;12.00;47.40;;;;;;5074669;28;20037;-64
2021/04/26 04:12:58;;;;;;;9.27;5.25;;;12.00;47.40;;;;;;5075247;28;20390;-64
2021/04/26 04:15:24;;;;;;;13.38;5.88;;;11.90;47.40;;;;;;5075025;28;20032;-65
2021/04/26 04:17:51;;;;;;;10.32;5.70;;;11.90;47.60;;;;;;5074359;28;20025;-65
2021/04/26 04:20:18;;;;;;;11.18;5.88;;;11.90;47.70;;;;;;5074559;28;20021;-64
2021/04/26 04:22:44;;;;;;;10.65;5.55;;;11.90;47.70;;;;;;5090935;28;20019;-65
2021/04/26 04:25:13;;;;;;;10.35;5.75;;;11.90;47.80;;;;;;5080733;28;20024;-65
2021/04/26 04:27:39;;;;;;;11.23;5.78;;;11.90;48.00;;;;;;5075093;28;20032;-64
2021/04/26 04:30:08;;;;;;;10.00;5.53;;;11.90;47.80;;;;;;5075089;28;20043;-64
2021/04/26 04:32:34;;;;;;;11.93;6.28;;;11.90;48.00;;;;;;5073235;28;20625;-64
2021/04/26 04:35:00;;;;;;;11.15;5.55;;;11.80;48.00;;;;;;5074753;28;20108;-64
2021/04/26 04:37:27;;;;;;;10.15;6.03;;;11.80;48.10;;;;;;5074357;28;20021;-64
2021/04/26 04:39:53;;;;;;;9.65;6.07;;;11.80;48.40;;;;;;5066258;28;20024;-65
2021/04/26 04:42:19;;;;;;;14.40;6.93;;;11.70;48.20;;;;;;5074445;28;20040;-65
2021/04/26 04:44:45;;;;;;;10.18;5.60;;;11.70;48.50;;;;;;5074723;28;20042;-65
2021/04/26 04:47:11;;;;;;;13.57;5.82;;;11.70;48.40;;;;;;5074261;28;20059;-65
2021/04/26 04:49:37;;;;;;;12.25;6.28;;;11.70;48.40;;;;;;5073398;28;20055;-65
2021/04/26 04:52:04;;;;;;;10.52;5.35;;;11.70;48.40;;;;;;5074205;28;20024;-65
2021/04/26 04:54:30;;;;;;;12.38;5.97;;;11.70;48.40;;;;;;5073866;28;20472;-65
2021/04/26 04:56:56;;;;;;;11.63;6.68;;;11.70;49.40;;;;;;5090472;28;20549;-64
2021/04/26 04:59:23;;;;;;;10.23;5.40;;;11.60;48.70;;;;;;5090916;28;20047;-65
2021/04/26 05:01:49;;;;;;;10.48;4.93;;;11.60;48.50;;;;;;5073931;28;20056;-65
2021/04/26 05:04:15;;;;;;;12.45;6.55;;;11.60;48.60;;;;;;5073967;28;20056;-64
2021/04/26 05:06:41;;;;;;;13.15;7.25;;;11.60;49.00;;;;;;5072096;28;20067;-64
2021/04/26 05:09:08;;;;;;;10.35;5.57;;;11.60;48.90;;;;;;5074301;28;20468;-64
2021/04/26 05:11:34;;;;;;;11.02;5.78;;;11.50;48.70;;;;;;5073209;28;20064;-64
2021/04/26 05:14:01;;;;;;;11.65;5.68;;;11.50;48.80;;;;;;5073781;28;20063;-64
2021/04/26 05:16:28;;;;;;;10.35;5.82;;;11.50;48.80;;;;;;5073869;28;20032;-65
2021/04/26 05:18:56;;;;;;;13.88;6.00;;;11.50;48.80;;;;;;5072312;28;20500;-65
2021/04/26 05:21:23;;;;;;;10.52;5.95;;;11.50;48.90;;;;;;5072257;28;20055;-66
2021/04/26 05:23:50;;;;;;;11.25;5.75;;;11.50;48.80;;;;;;5072199;28;20068;-66
2021/04/26 05:26:16;;;;;;;10.77;5.88;;;11.50;48.80;;;;;;5071924;28;20024;-66
2021/04/26 05:28:42;;;;;;;12.75;5.93;;;11.50;48.80;;;;;;5071430;28;20388;-67
2021/04/26 05:31:09;;;;;;;12.05;5.75;;;11.50;48.90;;;;;;5071971;28;20025;-66
2021/04/26 05:33:35;;;;;;;10.02;5.82;;;11.50;48.90;;;;;;5072660;28;20040;-65
2021/04/26 05:36:01;;;;;;;10.32;5.78;;;11.50;48.80;;;;;;5071535;28;20047;-65
2021/04/26 05:38:28;;;;;;;11.20;6.28;;;11.50;48.90;;;;;;5069628;28;20024;-66
2021/04/26 05:40:54;;;;;;;15.65;8.13;;;11.50;48.90;;;;;;5070199;28;20059;-65
2021/04/26 05:43:20;;;;;;;13.07;6.30;;;11.50;49.10;;;;;;5070428;28;20028;-65
2021/04/26 05:45:47;;;;;;;11.02;5.93;;;11.50;49.00;;;;;;5068490;28;20579;-66
2021/04/26 05:48:13;;;;;;;12.30;6.25;;;11.50;48.90;;;;;;5070859;28;20024;-66
2021/04/26 05:50:39;;;;;;;12.50;6.60;;;11.50;49.00;;;;;;5071183;28;20028;-66
2021/04/26 05:53:06;;;;;;;10.85;6.65;;;11.40;49.00;;;;;;5070679;28;20032;-65
2021/04/26 05:55:32;;;;;;;10.40;5.95;;;11.50;49.20;;;;;;5070922;28;20024;-65
2021/04/26 05:57:59;;;;;;;9.57;5.70;;;11.50;49.00;;;;;;5069649;28;20024;-65
2021/04/26 06:00:25;;;;;;;11.32;6.15;;;11.50;49.00;;;;;;5071767;28;20043;-66
2021/04/26 06:02:51;;;;;;;11.88;5.93;;;11.60;48.80;;;;;;5071341;28;20040;-66
2021/04/26 06:05:18;;;;;;;10.43;6.22;;;11.60;48.70;;;;;;5070934;28;20592;-66
2021/04/26 06:07:45;;;;;;;11.25;6.18;;;11.60;48.70;;;;;;5080111;28;20028;-66
2021/04/26 06:10:12;;;;;;;10.93;5.93;;;11.60;48.40;;;;;;5070334;28;20109;-66
2021/04/26 06:12:39;;;;;;;12.60;6.72;;;11.60;48.40;;;;;;5070660;28;20101;-66
2021/04/26 06:15:06;;;;;;;11.00;6.90;;;11.60;48.50;;;;;;5071395;28;20024;-66
2021/04/26 06:17:32;;;;;;;12.90;6.00;;;11.70;48.50;;;;;;5071087;28;20032;-66
2021/04/26 06:19:59;;;;;;;9.65;5.38;;;11.70;48.40;;;;;;5071529;28;20058;-65
2021/04/26 06:22:25;;;;;;;11.98;5.65;;;11.80;48.40;;;;;;5077741;28;20520;-65
2021/04/26 06:24:51;;;;;;;11.60;6.55;;;11.80;48.20;;;;;;5072046;28;20035;-65
2021/04/26 06:27:17;;;;;;;10.82;6.20;;;11.80;48.20;;;;;;5078176;28;20020;-66
2021/04/26 06:29:43;;;;;;;11.23;6.65;;;11.80;48.20;;;;;;5071336;28;20066;-67
2021/04/26 06:32:10;;;;;;;11.52;6.80;;;11.80;48.10;;;;;;5071517;28;20511;-66
2021/04/26 06:34:36;;;;;;;12.65;6.88;;;11.90;48.00;;;;;;5070505;28;20081;-66
2021/04/26 06:37:02;;;;;;;9.50;6.10;;;11.90;48.00;;;;;;5072494;28;20028;-65
2021/04/26 06:39:29;;;;;;;10.73;6.20;;;12.00;47.90;;;;;;5067986;28;20461;-66
2021/04/26 06:41:57;;;;;;;14.40;6.60;;;12.00;47.60;;;;;;5070647;28;20029;-65
2021/04/26 06:44:23;;;;;;;12.02;7.30;;;12.10;47.50;;;;;;5069715;28;20028;-70
2021/04/26 06:46:50;;;;;;;12.63;6.90;;;12.10;47.50;;;;;;5069130;28;20029;-66
2021/04/26 06:49:19;;;;;;;12.05;7.32;;;12.20;47.90;;;;;;5070796;28;20381;-66
2021/04/26 06:51:47;;;;;;;14.77;7.15;;;12.10;47.20;;;;;;5071226;28;20029;-66
2021/04/26 06:54:14;;;;;;;11.35;6.75;;;12.10;47.10;;;;;;5069014;28;20039;-64
2021/04/26 06:56:40;;;;;;;13.40;7.00;;;12.20;46.90;;;;;;5074316;28;20036;-64
2021/04/26 06:59:06;;;;;;;12.27;7.10;;;12.30;47.00;;;;;;5082195;28;20020;-64
2021/04/26 07:01:32;;;;;;;11.80;6.10;;;12.40;46.80;;;;;;5072596;28;20032;-62
2021/04/26 07:03:58;;;;;;;11.32;6.78;;;12.60;46.80;;;;;;5063965;28;20028;-62
2021/04/26 07:06:25;;;;;;;12.20;6.15;;;12.80;46.70;;;;;;5070834;28;20407;-62
2021/04/26 07:08:51;;;;;;;12.27;5.93;;;13.00;46.60;;;;;;5070154;28;20039;-62
2021/04/26 07:11:17;;;;;;;10.63;5.80;;;13.20;46.00;;;;;;5069386;28;20046;-62
2021/04/26 07:13:44;;;;;;;10.80;5.70;;;13.40;45.50;;;;;;5074207;28;20048;-62
2021/04/26 07:16:10;;;;;;;11.80;6.60;;;13.50;45.20;;;;;;5073415;28;20025;-62
2021/04/26 07:18:37;;;;;;;9.48;5.78;;;13.60;44.70;;;;;;5069376;28;20499;-62
2021/04/26 07:21:04;;;;;;;12.55;6.82;;;13.90;44.40;;;;;;5069685;28;20032;-61
2021/04/26 07:23:30;;;;;;;12.10;6.20;;;14.10;43.70;;;;;;5070334;28;20054;-61
2021/04/26 07:25:57;;;;;;;9.45;5.35;;;14.20;43.30;;;;;;5075404;28;20028;-62
2021/04/26 07:28:23;;;;;;;11.95;5.78;;;14.40;43.20;;;;;;5070740;28;20028;-62
2021/04/26 07:30:49;;;;;;;10.20;5.47;;;14.70;42.60;;;;;;5073635;28;20025;-62
2021/04/26 07:33:15;;;;;;;9.60;5.65;;;14.90;42.10;;;;;;5070793;28;20392;-62
2021/04/26 07:35:41;;;;;;;11.05;5.72;;;15.20;41.70;;;;;;5071605;28;20027;-62
2021/04/26 07:38:07;;;;;;;9.63;5.00;;;15.30;41.00;;;;;;5067784;28;20404;-62
2021/04/26 07:40:33;;;;;;;10.75;5.22;;;15.40;40.60;;;;;;5061091;28;20028;-62
2021/04/26 07:42:59;;;;;;;9.88;5.28;;;15.40;40.60;;;;;;5070123;28;20396;-63
2021/04/26 07:45:26;;;;;;;11.57;5.30;;;15.30;40.60;;;;;;5070406;28;20465;-64
2021/04/26 07:47:54;;;;;;;11.77;6.75;;;15.20;40.70;;;;;;5069291;28;20029;-64
2021/04/26 07:50:21;;;;;;;10.00;5.45;;;15.00;40.30;;;;;;5071868;28;20029;-64
2021/04/26 07:52:47;;;;;;;9.88;5.32;;;14.90;40.60;;;;;;5073811;28;20024;-64
2021/04/26 07:55:13;;;;;;;10.73;6.20;;;14.80;40.70;;;;;;5070021;28;20083;-64
2021/04/26 07:57:40;;;;;;;12.02;5.60;;;14.70;40.60;;;;;;5068994;28;20253;-64
2021/04/26 08:00:08;;;;;;;10.70;5.38;;;14.70;40.80;;;;;;5069416;28;20036;-64
2021/04/26 08:02:34;;;;;;;11.80;6.15;;;14.70;40.90;;;;;;5081112;28;20036;-64
2021/04/26 08:05:01;;;;;;;10.10;5.75;;;14.80;40.90;;;;;;5076626;28;20472;-64
2021/04/26 08:07:27;;;;;;;11.13;5.45;;;14.90;40.90;;;;;;5080775;28;20029;-64
2021/04/26 08:09:53;;;;;;;11.45;5.78;;;15.10;40.60;;;;;;5070321;28;20039;-64
2021/04/26 08:12:20;;;;;;;9.80;5.10;;;15.20;40.30;;;;;;5082478;28;20024;-64
2021/04/26 08:14:47;;;;;;;9.73;5.03;;;15.10;40.10;;;;;;5068979;28;20025;-64
2021/04/26 08:17:14;;;;;;;9.10;4.78;;;15.10;40.30;;;;;;5069850;28;20024;-64
2021/04/26 08:19:40;;;;;;;12.02;6.07;;;15.10;40.10;;;;;;5070329;28;20114;-64
2021/04/26 08:22:08;;;;;;;10.70;5.07;;;15.10;40.00;;;;;;5078953;28;20035;-64
2021/04/26 08:24:34;;;;;;;12.10;5.82;;;15.20;39.90;;;;;;5071171;28;20040;-63
2021/04/26 08:27:00;;;;;;;10.80;5.93;;;15.30;40.00;;;;;;5075099;28;20123;-64
2021/04/26 08:29:26;;;;;;;11.40;5.60;;;15.40;39.80;;;;;;5073840;28;20047;-63
2021/04/26 08:31:53;;;;;;;11.18;5.38;;;15.50;39.50;;;;;;5073042;28;20029;-64
2021/04/26 08:34:19;;;;;;;10.60;5.07;;;15.60;39.50;;;;;;5073325;28;20023;-63
2021/04/26 08:36:45;;;;;;;10.20;5.65;;;15.80;39.50;;;;;;5075989;28;20036;-63
2021/04/26 08:39:11;;;;;;;9.95;5.20;;;15.90;38.90;;;;;;5071545;28;20025;-64
2021/04/26 08:41:40;;;;;;;11.43;5.90;;;16.20;38.50;;;;;;5076849;28;20032;-64
2021/04/26 08:44:06;;;;;;;10.00;4.68;;;16.40;37.90;;;;;;5072705;28;20023;-63
2021/04/26 08:46:33;;;;;;;10.25;5.30;;;16.80;37.60;;;;;;5073061;28;20037;-64
2021/04/26 08:48:59;;;;;;;10.25;5.68;;;17.30;36.80;;;;;;5067244;28;20492;-64
2021/04/26 08:51:25;;;;;;;11.38;4.47;;;17.70;36.10;;;;;;5065450;28;20381;-64
2021/04/26 08:53:51;;;;;;;10.23;5.00;;;17.90;35.50;;;;;;5071776;28;20525;-64
2021/04/26 08:56:17;;;;;;;8.77;4.32;;;17.90;35.00;;;;;;5074021;28;20532;-63
2021/04/26 08:58:44;;;;;;;8.63;4.22;;;17.80;34.70;;;;;;5070997;28;20369;-64
2021/04/26 09:01:10;;;;;;;10.38;5.05;;;17.70;34.90;;;;;;5072312;28;20400;-64
2021/04/26 09:03:38;;;;;;;9.35;4.63;;;17.60;34.80;;;;;;5072237;28;20016;-64
2021/04/26 09:06:10;;;;;;;10.57;5.05;;;17.60;34.70;;;;;;5082273;28;20420;-64
2021/04/26 09:08:36;;;;;;;9.48;4.40;;;17.60;34.70;;;;;;5075374;28;20020;-64
2021/04/26 09:11:05;;;;;;;8.73;4.78;;;17.50;34.60;;;;;;5071692;28;20132;-64
2021/04/26 09:13:38;;;;;;;12.50;4.93;;;17.40;34.40;;;;;;5072523;28;20039;-64
2021/04/26 09:16:24;;;;;;;10.65;5.00;;;17.30;34.40;;;;;;5080438;28;20131;-64
2021/04/26 09:18:58;;;;;;;11.05;5.55;;;17.10;34.20;;;;;;5075174;28;20032;-65
2021/04/26 09:21:37;;;;;;;10.18;4.57;;;17.00;34.70;;;;;;5074360;28;20025;-65
2021/04/26 09:24:24;;;;;;;11.38;5.20;;;16.90;35.20;;;;;;5072727;28;20012;-65
2021/04/26 09:27:09;;;;;;;11.50;4.65;;;16.80;35.40;;;;;;5086018;28;20062;-64
2021/04/26 09:29:36;;;;;;;8.65;4.57;;;16.80;35.80;;;;;;5061449;28;20512;-65
2021/04/26 09:32:07;;;;;;;8.40;4.55;;;16.90;36.00;;;;;;5079410;28;20069;-65
2021/04/26 09:34:44;;;;;;;9.77;4.88;;;17.00;35.80;;;;;;5071503;28;20056;-65
2021/04/26 09:37:12;;;;;;;10.27;4.75;;;17.10;35.50;;;;;;5072662;28;20055;-64
2021/04/26 09:39:54;;;;;;;9.73;4.60;;;17.00;35.20;;;;;;5069732;28;20425;-65
2021/04/26 09:42:49;;;;;;;11.02;4.35;;;17.00;35.20;;;;;;5070531;28;20066;-65
2021/04/26 09:45:24;;;;;;;9.88;4.30;;;16.90;35.30;;;;;;5067774;28;20053;-65
2021/04/26 09:48:07;;;;;;;11.70;4.63;;;16.90;35.20;;;;;;5069603;28;20079;-65
2021/04/26 09:50:48;;;;;;;10.93;4.65;;;16.90;35.20;;;;;;5065250;28;20098;-65
2021/04/26 09:53:14;;;;;;;10.13;4.30;;;17.00;35.50;;;;;;5070591;28;20052;-65
2021/04/26 09:55:40;;;;;;;8.20;4.22;;;17.00;35.70;;;;;;5075464;28;20053;-65
2021/04/26 09:58:06;;;;;;;9.38;4.90;;;17.00;35.50;;;;;;5063529;28;20060;-65
2021/04/26 10:00:33;;;;;;;10.38;4.47;;;17.00;35.50;;;;;;5071290;28;20102;-65
2021/04/26 10:02:59;;;;;;;10.65;5.45;;;17.00;35.50;;;;;;5068292;28;20115;-65
2021/04/26 10:05:26;;;;;;;9.38;4.53;;;16.90;35.40;;;;;;5069428;28;20098;-66
2021/04/26 10:07:53;;;;;;;11.52;5.00;;;16.90;35.50;;;;;;5069966;28;20551;-65
2021/04/26 10:10:19;;;;;;;11.73;4.93;;;16.80;35.60;;;;;;5070164;28;20461;-65
2021/04/26 10:12:45;;;;;;;10.75;4.25;;;16.80;35.60;;;;;;5069157;28;20067;-65
2021/04/26 10:15:13;;;;;;;9.73;4.50;;;16.70;35.60;;;;;;5069939;28;20059;-65
2021/04/26 10:17:42;;;;;;;9.35;4.70;;;16.80;35.60;;;;;;5063513;28;20047;-72
2021/04/26 10:20:09;;;;;;;9.10;4.40;;;16.70;35.50;;;;;;5070177;28;20056;-69
2021/04/26 10:22:40;;;;;;;9.63;4.65;;;16.70;35.90;;;;;;5070774;28;20063;-71
2021/04/26 10:25:08;;;;;;;7.55;4.20;;;16.70;35.90;;;;;;5071423;28;20060;-74
2021/04/26 10:27:38;;;;;;;8.10;3.80;;;16.60;36.10;;;;;;5070252;28;20051;-74
2021/04/26 10:30:07;;;;;;;8.43;4.23;;;16.70;36.20;;;;;;5070742;28;20060;-64
2021/04/26 10:32:54;;;;;;;9.82;4.93;;;16.70;36.00;;;;;;5069532;28;20062;-64
2021/04/26 10:35:21;;;;;;;12.50;4.93;;;16.60;34.80;;;;;;5068198;28;20047;-64
2021/04/26 10:37:47;;;;;;;9.05;4.82;;;16.50;34.30;;;;;;5070507;28;20056;-64
2021/04/26 10:40:17;;;;;;;9.45;4.10;;;16.30;34.50;;;;;;5069544;28;20079;-64
2021/04/26 10:42:49;;;;;;;9.82;4.15;;;16.20;35.00;;;;;;5069757;28;20055;-63
2021/04/26 10:45:20;;;;;;;12.45;5.70;;;16.20;35.30;;;;;;5068917;28;20546;-63
2021/04/26 10:48:04;;;;;;;12.75;5.20;;;16.20;35.40;;;;;;5069761;28;20028;-64
2021/04/26 10:50:41;;;;;;;10.02;4.85;;;16.20;35.40;;;;;;5071243;28;20067;-64
2021/04/26 10:53:09;;;;;;;10.65;5.03;;;16.20;35.50;;;;;;5069352;28;20476;-64
2021/04/26 10:55:42;;;;;;;10.38;4.93;;;16.20;34.00;;;;;;5073075;28;20075;-64
2021/04/26 10:58:27;;;;;;;11.35;4.45;;;16.10;33.50;;;;;;5068005;28;20415;-63
2021/04/26 11:00:54;;;;;;;9.82;4.32;;;16.10;34.10;;;;;;5072854;28;20056;-64
2021/04/26 11:03:25;;;;;;;8.65;4.20;;;16.10;34.40;;;;;;5070282;28;20055;-63
2021/04/26 11:05:53;;;;;;;8.23;3.30;;;16.20;34.60;;;;;;5071984;28;20098;-63
2021/04/26 11:08:33;;;;;;;10.85;4.22;;;16.40;34.50;;;;;;5067019;28;20075;-63
2021/04/26 11:11:08;;;;;;;9.05;4.30;;;16.40;33.50;;;;;;5069033;28;20064;-63
2021/04/26 11:13:34;;;;;;;10.75;4.30;;;16.40;32.80;;;;;;5070848;28;20036;-71
2021/04/26 11:16:07;;;;;;;9.63;3.75;;;16.30;32.00;;;;;;5071614;28;20059;-74
2021/04/26 11:18:36;;;;;;;9.57;4.13;;;16.30;33.40;;;;;;5082246;28;20448;-72
2021/04/26 11:21:03;;;;;;;11.10;4.30;;;16.30;33.10;;;;;;5072033;28;20060;-72
2021/04/26 11:23:52;;;;;;;9.82;4.05;;;16.30;33.00;;;;;;5070691;28;20067;-73
2021/04/26 11:26:23;;;;;;;7.30;3.42;;;16.30;33.80;;;;;;5067927;28;20048;-75
2021/04/26 11:29:01;;;;;;;9.60;4.05;;;16.40;34.10;;;;;;5068431;28;20037;-72
2021/04/26 11:31:43;;;;;;;8.50;4.22;;;16.40;33.50;;;;;;5070021;28;20029;-75
2021/04/26 11:34:13;;;;;;;7.65;3.65;;;16.40;33.20;;;;;;5068169;28;20060;-76
2021/04/26 11:36:39;;;;;;;13.75;4.30;;;16.40;33.50;;;;;;5070855;28;20048;-76
2021/04/26 11:39:08;;;;;;;8.95;3.53;;;16.40;33.70;;;;;;5067222;28;20064;-76
2021/04/26 11:41:46;;;;;;;10.52;4.20;;;16.40;33.70;;;;;;5069595;28;20520;-76
2021/04/26 11:44:13;;;;;;;9.35;4.60;;;16.50;34.50;;;;;;5069275;28;20483;-75
2021/04/26 11:46:39;;;;;;;11.10;4.05;;;16.50;33.80;;;;;;5068241;28;20366;-76
2021/04/26 11:49:20;;;;;;;9.93;4.00;;;16.40;33.50;;;;;;5069325;28;20076;-76
2021/04/26 11:51:49;;;;;;;11.60;4.40;;;16.40;33.80;;;;;;5076331;28;20067;-75
2021/04/26 11:54:18;;;;;;;9.43;3.70;;;16.40;33.90;;;;;;5068828;28;20025;-75
2021/04/26 11:57:11;;;;;;;8.57;3.97;;;16.50;34.10;;;;;;5068246;28;20035;-74
2021/04/26 11:59:48;;;;;;;9.57;4.20;;;16.60;34.20;;;;;;5070387;28;20025;-76
2021/04/26 12:02:32;;;;;;;9.88;4.10;;;16.70;33.70;;;;;;5079575;28;20021;-74
2021/04/26 12:05:00;;;;;;;8.52;4.03;;;16.70;32.90;;;;;;5073239;28;20472;-74
2021/04/26 12:07:27;;;;;;;8.95;4.18;;;16.60;32.50;;;;;;5072863;28;20056;-75
2021/04/26 12:10:02;;;;;;;8.40;3.72;;;16.50;32.90;;;;;;5073472;28;20060;-75
2021/04/26 12:12:30;;;;;;;9.15;4.18;;;16.50;33.50;;;;;;5067538;28;20024;-75
2021/04/26 12:15:27;;;;;;;9.55;4.00;;;16.60;33.70;;;;;;5072072;28;20501;-74
2021/04/26 12:17:56;;;;;;;9.57;4.18;;;16.60;33.80;;;;;;5071634;28;20064;-74
2021/04/26 12:20:29;;;;;;;9.73;3.90;;;16.70;32.60;;;;;;5074271;28;20060;-74
2021/04/26 12:23:01;;;;;;;10.68;4.18;;;16.70;32.50;;;;;;5073537;28;20106;-74
2021/04/26 12:25:33;;;;;;;10.18;4.63;;;16.60;32.10;;;;;;5074287;28;20058;-74
2021/04/26 12:28:05;;;;;;;9.50;4.40;;;16.70;32.30;;;;;;5073431;28;20063;-74
2021/04/26 12:30:40;;;;;;;9.88;4.57;;;16.70;32.70;;;;;;5073651;28;20029;-74
2021/04/26 12:33:23;;;;;;;10.85;4.15;;;16.80;32.50;;;;;;5073490;28;20060;-74
2021/04/26 12:35:50;;;;;;;7.60;3.50;;;16.80;32.20;;;;;;5073611;28;20048;-74
2021/04/26 12:38:16;;;;;;;7.53;3.67;;;16.80;32.60;;;;;;5071368;28;20388;-74
2021/04/26 12:40:42;;;;;;;10.63;4.20;;;16.80;31.90;;;;;;5077639;28;20059;-74
2021/04/26 12:43:10;;;;;;;10.55;4.05;;;16.70;31.80;;;;;;5073322;28;20052;-63
2021/04/26 12:45:42;;;;;;;8.35;3.80;;;16.70;31.70;;;;;;5075672;28;20067;-63
2021/04/26 12:48:14;;;;;;;9.07;4.00;;;16.70;32.00;;;;;;5073430;28;20071;-63
2021/04/26 12:50:44;;;;;;;7.43;3.65;;;16.70;31.90;;;;;;5073072;28;20086;-63